Greenwood, SC

6:36 PM EDT on June 03, 2015 (GMT -0400)
Cherokee Hills | | Change Station
CLOSE
Current Station
Personal Weather Station
Location: Greenwood, SC
Elevation: 554 ft
Nearby Weather Stations

Elev 554 ft 34.24 °N, 82.17 °W | Updated 53 seconds ago

Partly Cloudy
Partly Cloudy
77.5 °F
Feels Like 79 °F
N
3.0
Wind Variable Wind from NE
Gusts 6.0 mph

Today
High -- | Low -- °F
--% Chance of Precip.
Yesterday
High -- | Low -- °F
Precip. -- in
6:17 AM 8:36 PM
Full, 98% visible
Pressure 29.96 in
Visibility 10.0 miles
Clouds Few 3100 ft
Scattered Clouds 5500 ft
Heat Index 79 °F
Dew Point 69 °F
Humidity 76%
Rainfall 0.20 in
Snow Depth Not available.
UV 3 out of 12
Pollen 4.90 out of 12
Air Quality Not available.
Flu Activity Local Activity
METAR KGRD 032156Z AUTO 09009KT 10SM FEW031 SCT055 26/18 A2998 RMK AO2 SLP145 T02560183

More Conditions Fewer Conditions

Pressure 29.96 in
Visibility 10.0 miles
Clouds Few 3100 ft
Scattered Clouds 5500 ft
Heat Index 79 °F
Dew Point 69 °F
Humidity 76%
Rainfall 0.20 in
Snow Depth Not available.
UV 3 out of 12
Pollen 4.90 out of 12
Air Quality Not available.
Flu Activity Local Activity
METAR KGRD 032156Z AUTO 09009KT 10SM FEW031 SCT055 26/18 A2998 RMK AO2 SLP145 T02560183

More Conditions Fewer Conditions

10-Day Weather Forecast

×

Almanac

Astronomy

Jun. 03, 2015 Rise Set
Actual Time
Civil Twilight
Nautical Twilight
Astronomical Twilight
Moon
Length of Visible Light
Length of Day
Tomorrow will be .
, % of the Moon is Illuminated

Today's Extremes

State Highs State Lows

Community

WunderPhotos

Upload Photos

1,826,295 photos uploaded!

WunderBlogs® & News

Nearby

Air Quality

  Air Quality AQ Index Pollutant
Not available.

Snow Depth

Station Depth Elevation

Earthquake Activity

City Distance Mag. Time & Date
Minimum magnitude displayed is 2.5.

Coastal Water Temperatures

Place Temperature

Stations

Nearby Weather Stations

Station Location Temp. Windchill Dew Point Humidity Wind Precip. Elev Updated Type